createdAt,value
2022-08-19T00:14:58.101Z,33.35
2022-08-19T00:25:02.182Z,31.17
2022-08-19T00:35:07.789Z,33.92
2022-08-19T00:45:14.373Z,31.30
2022-08-19T00:55:21.402Z,39.92
2022-08-19T01:05:29.657Z,43.55
2022-08-19T01:15:36.496Z,43.00
2022-08-19T01:25:46.302Z,42.70
2022-08-19T01:35:51.400Z,41.90
2022-08-19T01:45:55.719Z,41.20
2022-08-19T01:55:59.083Z,41.38
2022-08-19T02:06:06.208Z,41.55
2022-08-19T02:16:09.122Z,43.80
2022-08-19T02:26:14.486Z,38.97
2022-08-19T02:36:20.806Z,40.85
2022-08-19T02:46:28.151Z,42.22
2022-08-19T02:56:31.820Z,40.25
2022-08-19T03:06:38.453Z,41.30
2022-08-19T03:16:44.449Z,46.70
2022-08-19T03:26:52.238Z,48.65
2022-08-19T03:36:56.303Z,48.97
2022-08-19T03:47:02.029Z,55.63
2022-08-19T03:57:05.468Z,58.45
2022-08-19T04:07:11.426Z,72.97
2022-08-19T04:17:15.058Z,69.82
2022-08-19T04:27:19.355Z,72.60
2022-08-19T04:37:22.328Z,80.40
2022-08-19T04:47:48.124Z,72.00
2022-08-19T04:57:49.883Z,74.93
2022-08-19T05:07:54.105Z,68.97
2022-08-19T05:18:15.501Z,73.55
2022-08-19T05:28:20.471Z,82.13
2022-08-19T05:38:23.427Z,77.85
2022-08-19T05:48:27.777Z,77.57
2022-08-19T05:58:30.761Z,71.20
2022-08-19T06:08:36.033Z,68.90
2022-08-19T06:18:39.422Z,64.70
2022-08-19T06:28:47.460Z,56.05
2022-08-19T06:38:50.488Z,57.17
2022-08-19T06:48:55.881Z,53.03
2022-08-19T06:58:58.978Z,49.25
2022-08-19T07:09:03.587Z,48.35
2022-08-19T07:19:11.857Z,41.38
2022-08-19T07:29:25.814Z,39.83
2022-08-19T07:39:34.158Z,44.45
2022-08-19T07:49:39.566Z,46.20
2022-08-19T07:59:42.615Z,52.35
2022-08-19T08:09:49.648Z,54.47
2022-08-19T08:19:53.393Z,55.42
2022-08-19T08:29:57.765Z,48.07
2022-08-19T08:40:01.142Z,37.95
2022-08-19T08:50:11.516Z,39.58
2022-08-19T09:00:27.517Z,40.55
2022-08-19T09:10:44.729Z,40.65
2022-08-19T09:20:49.015Z,44.05
2022-08-19T09:30:53.667Z,44.45
2022-08-19T09:40:57.187Z,43.53
2022-08-19T09:51:09.043Z,41.35
2022-08-19T10:01:20.191Z,41.30
2022-08-19T10:11:27.200Z,41.45
2022-08-19T10:21:35.266Z,39.50
2022-08-19T10:32:00.877Z,38.67
2022-08-19T10:42:07.438Z,37.97
2022-08-19T10:52:32.421Z,34.28
2022-08-19T11:02:35.703Z,34.17
2022-08-19T11:12:47.555Z,35.03
2022-08-19T11:22:51.075Z,40.75
2022-08-19T11:32:58.731Z,39.10
2022-08-19T11:43:02.730Z,35.13
2022-08-19T11:53:16.718Z,33.17
2022-08-19T12:03:20.681Z,32.70
2022-08-19T12:13:25.811Z,37.97
2022-08-19T12:23:28.837Z,30.70
2022-08-19T12:33:33.812Z,28.48
2022-08-19T12:43:38.029Z,29.75
2022-08-19T12:53:43.124Z,30.38
2022-08-19T13:03:48.350Z,29.80
2022-08-19T13:13:57.070Z,24.05
2022-08-19T13:24:00.303Z,17.10
2022-08-19T13:34:05.557Z,17.27
2022-08-19T13:44:09.646Z,18.33
2022-08-19T13:54:14.470Z,17.17
2022-08-19T14:04:17.406Z,18.73
2022-08-19T14:14:22.439Z,18.00
2022-08-19T14:24:25.500Z,17.83
2022-08-19T14:34:29.851Z,18.95
2022-08-19T14:44:34.804Z,14.45
2022-08-19T14:54:39.997Z,16.08
2022-08-19T15:04:58.389Z,16.73
2022-08-19T15:15:03.421Z,24.02
2022-08-19T15:25:10.047Z,16.50
2022-08-19T15:35:16.392Z,14.20
2022-08-19T15:45:23.553Z,10.93
2022-08-19T15:55:34.826Z,17.58
2022-08-19T16:05:56.118Z,19.08
2022-08-19T16:16:00.467Z,17.67
2022-08-19T16:26:03.708Z,19.15
2022-08-19T16:36:08.903Z,16.80
2022-08-19T16:46:13.160Z,17.33
2022-08-19T16:56:25.554Z,18.88
2022-08-19T17:06:35.082Z,23.63
2022-08-19T17:16:39.840Z,17.55
2022-08-19T17:26:46.051Z,13.00
2022-08-19T17:36:51.881Z,12.35
2022-08-19T17:47:04.977Z,9.05
2022-08-19T17:57:14.102Z,9.90
2022-08-19T18:07:22.068Z,10.70
2022-08-19T18:17:30.324Z,11.73
2022-08-19T18:27:36.367Z,12.20
2022-08-19T18:37:41.874Z,14.95
2022-08-19T18:48:02.153Z,18.73
2022-08-19T18:58:06.948Z,12.77
2022-08-19T19:08:09.929Z,13.85
2022-08-19T19:18:14.419Z,13.30
2022-08-19T19:28:17.433Z,14.85
2022-08-19T19:38:21.830Z,15.45
2022-08-19T19:48:25.037Z,15.43
2022-08-19T19:58:34.866Z,16.05
2022-08-19T20:08:55.774Z,14.65
2022-08-19T20:19:02.077Z,14.55
2022-08-19T20:29:13.245Z,12.15
2022-08-19T20:39:29.637Z,14.02
2022-08-19T20:49:33.079Z,13.32
2022-08-19T20:59:37.732Z,14.20
2022-08-19T21:09:40.718Z,15.75
2022-08-19T21:19:45.146Z,18.25
2022-08-19T21:29:48.553Z,14.15
2022-08-19T21:39:53.014Z,12.77
2022-08-19T21:49:55.962Z,11.05
2022-08-19T22:00:00.676Z,10.27
2022-08-19T22:10:05.011Z,10.40
2022-08-19T22:30:17.599Z,12.10
2022-08-19T22:40:22.504Z,13.45
2022-08-19T22:50:25.666Z,16.70
2022-08-19T23:00:30.841Z,17.85
2022-08-19T23:10:33.797Z,19.50
2022-08-19T23:20:40.547Z,20.63
2022-08-19T23:30:45.706Z,19.58
2022-08-19T23:40:51.103Z,21.23
2022-08-19T23:50:54.905Z,22.85
